Time;durP1;ratioP1;P1;durP2;ratioP2;P2;SDS_P1;SDS_P2;PMS_P1;PMS_P2;Temp;Humidity;BMP_temperature;BMP_pressure;BME280_temperature;BME280_humidity;BME280_pressure;Samples;Min_cycle;Max_cycle;Signal;HPM_P1;HPM_P2
2023/04/23 00:00:35;;;;;;;18.47;16.63;;;;;;;14.23;100.00;100483.44;5051704;28;20433;-45
2023/04/23 00:03:09;;;;;;;21.50;19.50;;;;;;;14.21;100.00;100484.72;5051909;28;20439;-46
2023/04/23 00:05:37;;;;;;;22.13;20.03;;;;;;;14.12;100.00;100484.19;5052073;28;20430;-45
2023/04/23 00:08:06;;;;;;;23.20;21.00;;;;;;;14.08;100.00;100477.66;5050888;28;20447;-45
2023/04/23 00:10:34;;;;;;;27.60;24.73;;;;;;;13.99;100.00;100472.81;5052207;28;20439;-46
2023/04/23 00:13:02;;;;;;;25.60;22.93;;;;;;;13.97;100.00;100473.06;5052344;28;20514;-45
2023/04/23 00:15:31;;;;;;;26.57;23.73;;;;;;;13.94;100.00;100470.00;5052317;28;20482;-45
2023/04/23 00:17:58;;;;;;;26.97;24.40;;;;;;;13.87;100.00;100478.09;5052649;28;20477;-43
2023/04/23 00:20:28;;;;;;;26.50;24.00;;;;;;;13.85;100.00;100478.34;5041910;28;20881;-46
2023/04/23 00:22:56;;;;;;;27.07;24.27;;;;;;;13.77;100.00;100481.31;5052338;28;20465;-44
2023/04/23 00:25:24;;;;;;;27.43;24.53;;;;;;;13.75;100.00;100475.34;5052229;28;20439;-43
2023/04/23 00:27:51;;;;;;;31.27;28.10;;;;;;;13.71;100.00;100471.47;5051833;28;21024;-43
2023/04/23 00:30:19;;;;;;;31.80;28.50;;;;;;;13.62;100.00;100462.09;5051607;28;20517;-43
2023/04/23 00:32:48;;;;;;;31.57;28.20;;;;;;;13.56;100.00;100468.34;5052218;28;20470;-45
2023/04/23 00:35:17;;;;;;;34.73;30.67;;;;;;;13.47;100.00;100468.88;5051558;28;20442;-46
2023/04/23 00:37:46;;;;;;;35.80;32.17;;;;;;;13.39;100.00;100467.28;5051307;28;20451;-46
2023/04/23 00:40:14;;;;;;;36.80;33.07;;;;;;;13.32;100.00;100466.53;5051009;28;20976;-44
2023/04/23 00:42:46;;;;;;;42.17;37.80;;;;;;;13.26;100.00;100470.13;5051406;28;20513;-47
2023/04/23 00:45:14;;;;;;;42.43;37.83;;;;;;;13.22;100.00;100475.09;5051465;28;20459;-44
2023/04/23 00:47:43;;;;;;;47.70;41.90;;;;;;;13.20;100.00;100479.81;5051362;28;20481;-42
2023/04/23 00:50:11;;;;;;;47.23;42.00;;;;;;;13.13;100.00;100473.72;5047666;28;20463;-46
2023/04/23 00:52:39;;;;;;;48.47;42.63;;;;;;;13.09;100.00;100472.50;5051124;28;20424;-47
2023/04/23 00:55:09;;;;;;;55.20;47.43;;;;;;;13.03;100.00;100462.66;5050465;28;20956;-47
2023/04/23 00:57:38;;;;;;;52.03;46.33;;;;;;;13.01;100.00;100466.59;5051283;28;20529;-46
2023/04/23 01:00:07;;;;;;;52.73;45.67;;;;;;;12.93;100.00;100466.88;5050970;28;20863;-50
2023/04/23 01:02:37;;;;;;;55.33;47.93;;;;;;;12.89;100.00;100460.31;5051077;28;20435;-46
2023/04/23 01:05:07;;;;;;;52.03;45.87;;;;;;;12.82;100.00;100460.34;5051405;28;20446;-45
2023/04/23 01:07:37;;;;;;;58.93;48.73;;;;;;;12.73;100.00;100458.97;5053217;28;20454;-47
2023/04/23 01:10:05;;;;;;;55.27;48.07;;;;;;;12.69;100.00;100468.50;5048454;28;20469;-49
2023/04/23 01:12:34;;;;;;;55.10;49.27;;;;;;;12.59;100.00;100471.66;5054857;28;20464;-45
2023/04/23 01:15:03;;;;;;;57.30;48.77;;;;;;;12.52;100.00;100475.38;5055591;28;20431;-43
2023/04/23 01:17:33;;;;;;;51.87;46.13;;;;;;;12.39;100.00;100481.66;5055101;28;20475;-46
2023/04/23 01:20:00;;;;;;;44.37;39.73;;;;;;;12.26;100.00;100487.06;5054568;28;20459;-44
2023/04/23 01:22:30;;;;;;;45.13;38.00;;;;;;;12.11;100.00;100489.19;5054737;28;20811;-44
2023/04/23 01:24:57;;;;;;;41.97;37.43;;;;;;;11.99;100.00;100475.66;5055110;28;20442;-47
2023/04/23 01:27:27;;;;;;;47.23;39.27;;;;;;;11.90;100.00;100479.63;5054786;28;20504;-47
2023/04/23 01:29:57;;;;;;;43.93;36.10;;;;;;;11.82;100.00;100489.72;5054109;28;20466;-44
2023/04/23 01:32:25;;;;;;;42.50;37.47;;;;;;;11.76;100.00;100494.06;5053991;28;21000;-45
2023/04/23 01:34:54;;;;;;;43.23;37.07;;;;;;;11.72;100.00;100492.00;5054898;28;20466;-46
2023/04/23 01:37:23;;;;;;;43.20;36.77;;;;;;;11.65;100.00;100502.66;5063698;28;20476;-43
2023/04/23 01:39:52;;;;;;;35.00;31.20;;;;;;;11.57;100.00;100501.06;5074430;28;20450;-46
2023/04/23 01:42:20;;;;;;;35.60;30.57;;;;;;;11.48;100.00;100504.16;5074334;28;20422;-47
2023/04/23 01:44:49;;;;;;;33.53;29.93;;;;;;;11.43;100.00;100493.28;5074522;28;20437;-46
2023/04/23 01:47:20;;;;;;;32.30;28.57;;;;;;;11.35;100.00;100488.97;5074630;28;20928;-44
2023/04/23 01:49:48;;;;;;;33.90;30.27;;;;;;;11.33;100.00;100488.34;5074509;28;20437;-44
2023/04/23 01:52:16;;;;;;;32.03;27.97;;;;;;;11.22;100.00;100502.34;5068958;28;20462;-44
2023/04/23 01:54:44;;;;;;;34.70;26.60;;;;;;;11.27;100.00;100493.69;5074395;28;20465;-44
2023/04/23 01:57:13;;;;;;;33.03;27.20;;;;;;;11.23;100.00;100503.16;5074382;28;20474;-46
2023/04/23 01:59:42;;;;;;;29.10;26.07;;;;;;;11.20;100.00;100501.69;5074441;28;20426;-46
2023/04/23 02:02:15;;;;;;;30.57;27.13;;;;;;;11.18;100.00;100506.44;5073447;28;20535;-42
2023/04/23 02:04:54;;;;;;;27.97;24.90;;;;;;;11.20;100.00;100492.91;5074221;28;20407;-46
2023/04/23 02:07:22;;;;;;;27.13;24.23;;;;;;;11.17;100.00;100502.13;5073944;28;20451;-42
2023/04/23 02:09:50;;;;;;;28.13;25.13;;;;;;;11.18;100.00;100513.63;5074297;28;20559;-46
2023/04/23 02:12:19;;;;;;;35.53;26.20;;;;;;;11.12;100.00;100515.25;5073321;28;20451;-49
2023/04/23 02:14:47;;;;;;;30.63;24.10;;;;;;;11.10;100.00;100512.00;5074155;28;20452;-46
2023/04/23 02:17:25;;;;;;;35.77;24.20;;;;;;;10.98;100.00;100518.97;5073878;28;20474;-45
2023/04/23 02:19:55;;;;;;;30.30;24.70;;;;;;;10.90;100.00;100519.16;5073071;28;20491;-43
2023/04/23 02:22:25;;;;;;;26.90;23.23;;;;;;;10.84;100.00;100522.66;5072833;28;20458;-47
2023/04/23 02:24:53;;;;;;;21.60;18.80;;;;;;;10.38;100.00;100528.69;5073906;28;20423;-44
2023/04/23 02:27:23;;;;;;;24.03;16.50;;;;;;;10.18;100.00;100529.66;5073490;28;20446;-44
2023/04/23 02:29:52;;;;;;;21.30;16.97;;;;;;;10.19;100.00;100534.75;5073957;28;20847;-44
2023/04/23 02:32:20;;;;;;;15.20;13.70;;;;;;;10.16;100.00;100539.66;5072930;28;20466;-44
2023/04/23 02:34:48;;;;;;;14.10;12.67;;;;;;;10.01;100.00;100547.75;5073857;28;20470;-44
2023/04/23 02:37:16;;;;;;;14.43;13.03;;;;;;;10.04;100.00;100552.69;5073299;28;20988;-43
2023/04/23 02:39:44;;;;;;;13.40;12.10;;;;;;;9.97;100.00;100543.88;5073546;28;20490;-44
2023/04/23 02:42:11;;;;;;;15.03;12.33;;;;;;;10.07;100.00;100548.81;5072841;28;20454;-44
2023/04/23 02:44:41;;;;;;;14.47;12.10;;;;;;;10.05;100.00;100549.03;5073372;28;20860;-45
2023/04/23 02:47:09;;;;;;;16.60;10.83;;;;;;;10.00;100.00;100554.94;5073247;28;20856;-44
2023/04/23 02:49:37;;;;;;;11.47;10.47;;;;;;;9.90;100.00;100551.81;5073189;28;21120;-44
2023/04/23 02:52:05;;;;;;;18.30;12.50;;;;;;;9.97;100.00;100562.50;5072545;28;20507;-44
2023/04/23 02:54:33;;;;;;;14.30;12.90;;;;;;;10.08;100.00;100559.28;5073191;28;20426;-48
2023/04/23 02:57:01;;;;;;;15.57;12.90;;;;;;;10.12;100.00;100557.88;5073126;28;20478;-45
2023/04/23 02:59:29;;;;;;;12.77;11.57;;;;;;;10.15;100.00;100560.19;5073928;28;20434;-48
2023/04/23 03:01:58;;;;;;;15.13;12.67;;;;;;;10.17;100.00;100560.81;5071687;28;20470;-47
2023/04/23 03:04:26;;;;;;;12.67;11.50;;;;;;;10.12;100.00;100557.88;5073345;28;20510;-42
2023/04/23 03:06:54;;;;;;;13.90;12.70;;;;;;;10.20;100.00;100562.25;5072806;28;21021;-48
2023/04/23 03:09:22;;;;;;;11.83;10.73;;;;;;;10.22;100.00;100565.53;5073096;28;20423;-42
2023/04/23 03:11:50;;;;;;;12.90;11.60;;;;;;;10.27;100.00;100569.25;5072006;28;20855;-42
2023/04/23 03:14:18;;;;;;;12.00;10.80;;;;;;;10.26;100.00;100570.28;5072940;28;20422;-42
2023/04/23 03:16:46;;;;;;;11.37;10.43;;;;;;;10.17;100.00;100568.78;5072771;28;20455;-44
2023/04/23 03:19:16;;;;;;;11.27;10.33;;;;;;;10.09;100.00;100560.94;5072404;28;20427;-46
2023/04/23 03:21:43;;;;;;;11.17;10.27;;;;;;;10.13;100.00;100558.69;5070025;28;20470;-46
2023/04/23 03:24:13;;;;;;;12.20;11.10;;;;;;;10.11;100.00;100556.22;5070521;28;20430;-47
2023/04/23 03:26:41;;;;;;;11.13;10.33;;;;;;;10.11;100.00;100558.88;5070536;28;20453;-46
2023/04/23 03:29:09;;;;;;;11.23;9.90;;;;;;;10.11;100.00;100566.06;5070677;28;20434;-44
2023/04/23 03:31:37;;;;;;;10.97;10.00;;;;;;;10.09;100.00;100563.59;5069338;28;20461;-46
2023/04/23 03:34:05;;;;;;;11.90;10.80;;;;;;;10.12;100.00;100563.22;5070419;28;20442;-45
2023/04/23 03:36:33;;;;;;;11.50;10.40;;;;;;;10.16;100.00;100556.47;5070838;28;20874;-45
2023/04/23 03:39:01;;;;;;;10.80;9.80;;;;;;;10.21;100.00;100555.91;5070834;28;20465;-44
2023/04/23 03:41:29;;;;;;;11.63;10.63;;;;;;;10.18;100.00;100558.97;5070284;28;20461;-45
2023/04/23 03:43:56;;;;;;;11.33;10.43;;;;;;;10.24;100.00;100564.31;5071011;28;20433;-46
2023/04/23 03:46:24;;;;;;;10.57;9.57;;;;;;;10.26;100.00;100559.59;5071160;28;20466;-45
2023/04/23 03:48:51;;;;;;;11.73;10.53;;;;;;;10.25;100.00;100565.13;5071971;28;20426;-46
2023/04/23 03:51:19;;;;;;;11.03;8.90;;;;;;;10.22;100.00;100570.84;5070035;28;20454;-45
2023/04/23 03:53:48;;;;;;;10.53;9.60;;;;;;;10.17;100.00;100558.13;5070588;28;20433;-43
2023/04/23 03:56:16;;;;;;;11.43;10.20;;;;;;;10.13;100.00;100561.34;5070488;28;20438;-44
2023/04/23 03:58:44;;;;;;;11.33;10.23;;;;;;;10.09;100.00;100552.94;5070704;28;20470;-45
2023/04/23 04:01:11;;;;;;;10.40;9.60;;;;;;;10.08;100.00;100564.63;5070717;28;20474;-44
2023/04/23 04:03:39;;;;;;;11.60;10.70;;;;;;;10.02;100.00;100555.56;5070604;28;20433;-42
2023/04/23 04:06:08;;;;;;;10.50;9.70;;;;;;;10.00;100.00;100546.13;5071295;28;20439;-42
2023/04/23 04:08:35;;;;;;;10.30;9.50;;;;;;;9.96;100.00;100542.22;5071555;28;20434;-46
2023/04/23 04:11:05;;;;;;;9.67;8.93;;;;;;;9.94;100.00;100558.41;5070257;28;20462;-43
2023/04/23 04:13:32;;;;;;;8.87;8.40;;;;;;;9.93;100.00;100556.75;5070428;28;20480;-45
2023/04/23 04:16:00;;;;;;;10.43;9.60;;;;;;;9.90;100.00;100556.31;5070839;28;20434;-42
2023/04/23 04:18:27;;;;;;;9.50;8.80;;;;;;;9.90;100.00;100556.31;5070918;28;20506;-43
2023/04/23 04:20:55;;;;;;;10.03;9.13;;;;;;;9.79;100.00;100549.72;5068742;28;20476;-46
2023/04/23 04:23:23;;;;;;;10.20;9.53;;;;;;;9.79;100.00;100554.22;5066941;28;20530;-46
2023/04/23 04:25:53;;;;;;;10.23;9.50;;;;;;;9.78;100.00;100556.06;5070217;28;20423;-45
2023/04/23 04:28:24;;;;;;;9.50;8.80;;;;;;;9.79;100.00;100560.38;5070200;28;20750;-45
2023/04/23 04:30:52;;;;;;;9.30;8.70;;;;;;;9.81;100.00;100557.50;5061476;28;20932;-46
2023/04/23 04:33:20;;;;;;;9.97;9.17;;;;;;;9.83;100.00;100550.94;5070146;28;20449;-46
2023/04/23 04:36:10;;;;;;;9.20;8.60;;;;;;;9.88;100.00;100566.34;5071157;28;20952;-42
2023/04/23 04:38:38;;;;;;;8.57;8.07;;;;;;;9.86;100.00;100571.03;5070412;28;20988;-43
2023/04/23 04:41:06;;;;;;;9.67;9.07;;;;;;;9.86;100.00;100568.38;5070975;28;20446;-46
2023/04/23 04:43:36;;;;;;;9.93;8.53;;;;;;;9.89;100.00;100567.97;5074546;28;20503;-43
2023/04/23 04:46:05;;;;;;;9.93;9.30;;;;;;;9.89;100.00;100576.81;5075437;28;20923;-46
2023/04/23 04:48:34;;;;;;;10.40;9.70;;;;;;;9.91;100.00;100573.97;5075528;28;20441;-46
2023/04/23 04:51:02;;;;;;;9.73;9.03;;;;;;;9.88;100.00;100582.34;5074823;28;20434;-43
2023/04/23 04:53:30;;;;;;;10.03;9.43;;;;;;;9.88;100.00;100571.69;5068066;28;20469;-43
2023/04/23 04:55:58;;;;;;;12.03;9.00;;;;;;;9.82;100.00;100569.81;5071811;28;20441;-45
2023/04/23 04:58:26;;;;;;;9.27;8.67;;;;;;;9.82;100.00;100575.13;5075289;28;20509;-47
2023/04/23 05:00:55;;;;;;;12.70;9.90;;;;;;;9.82;100.00;100572.47;5075401;28;20430;-44
2023/04/23 05:03:23;;;;;;;10.40;9.80;;;;;;;9.83;100.00;100572.25;5067920;28;20476;-45
2023/04/23 05:05:51;;;;;;;10.77;9.97;;;;;;;9.80;100.00;100575.31;5074854;28;20437;-42
2023/04/23 05:08:20;;;;;;;9.47;8.57;;;;;;;9.79;100.00;100573.69;5075125;28;20434;-43
2023/04/23 05:10:49;;;;;;;9.83;9.23;;;;;;;9.82;100.00;100575.13;5075172;28;20494;-47
2023/04/23 05:13:17;;;;;;;7.93;7.53;;;;;;;9.79;100.00;100581.69;5074414;28;20458;-44
2023/04/23 05:15:46;;;;;;;8.53;7.93;;;;;;;9.76;100.00;100581.22;5075262;28;20433;-46
2023/04/23 05:18:15;;;;;;;7.93;7.50;;;;;;;9.82;100.00;100591.94;5074889;28;20569;-47
2023/04/23 05:20:43;;;;;;;9.43;8.83;;;;;;;9.91;100.00;100590.75;5073843;28;20441;-49
2023/04/23 05:23:11;;;;;;;9.60;8.80;;;;;;;9.99;100.00;100585.28;5073936;28;20465;-42
2023/04/23 05:25:39;;;;;;;9.97;9.20;;;;;;;10.11;100.00;100584.72;5074578;28;20431;-45
2023/04/23 05:28:07;;;;;;;9.20;8.60;;;;;;;10.25;100.00;100584.59;5074853;28;20497;-43
2023/04/23 05:30:35;;;;;;;9.70;8.97;;;;;;;10.48;100.00;100586.97;5074761;28;20434;-48
2023/04/23 05:33:03;;;;;;;9.60;8.90;;;;;;;10.88;100.00;100583.38;5071162;28;20466;-45
2023/04/23 05:35:32;;;;;;;9.47;8.97;;;;;;;11.86;100.00;100595.13;5074255;28;20883;-44
2023/04/23 05:38:01;;;;;;;8.30;7.80;;;;;;;12.22;100.00;100590.09;5074554;28;20512;-42
2023/04/23 05:40:29;;;;;;;9.13;8.40;;;;;;;12.37;100.00;100593.34;5074789;28;20430;-46
2023/04/23 05:42:58;;;;;;;9.00;8.50;;;;;;;12.81;100.00;100595.22;5071386;28;20462;-48
2023/04/23 05:45:25;;;;;;;8.70;8.30;;;;;;;13.10;100.00;100591.13;5074589;28;20426;-48
2023/04/23 05:47:53;;;;;;;8.30;7.80;;;;;;;13.73;100.00;100598.06;5074095;28;20446;-46
2023/04/23 05:50:22;;;;;;;9.67;9.03;;;;;;;14.32;100.00;100596.59;5073995;28;20430;-44
2023/04/23 05:52:50;;;;;;;9.20;8.60;;;;;;;14.85;100.00;100589.53;5072654;28;20462;-47
2023/04/23 05:55:19;;;;;;;8.23;7.73;;;;;;;15.17;100.00;100587.41;5074173;28;20437;-50
2023/04/23 05:57:47;;;;;;;7.80;7.37;;;;;;;15.57;100.00;100593.00;5072955;28;20453;-47
2023/04/23 06:00:15;;;;;;;8.50;7.90;;;;;;;15.55;100.00;100589.72;5069972;28;20470;-43
2023/04/23 06:02:43;;;;;;;8.27;7.67;;;;;;;15.08;100.00;100580.75;5060242;28;20836;-44
2023/04/23 06:05:11;;;;;;;8.50;7.80;;;;;;;14.74;100.00;100590.31;5051801;28;20931;-47
2023/04/23 06:07:40;;;;;;;7.67;7.27;;;;;;;14.87;100.00;100594.69;5063310;28;20453;-51
2023/04/23 06:10:10;;;;;;;8.03;7.33;;;;;;;15.22;100.00;100590.22;5069942;28;20525;-49
2023/04/23 06:12:40;;;;;;;8.73;7.93;;;;;;;15.41;100.00;100582.91;5049269;28;20463;-46
2023/04/23 06:15:10;;;;;;;8.80;8.30;;;;;;;15.78;100.00;100581.66;5048963;28;20427;-44
2023/04/23 06:17:38;;;;;;;9.27;8.77;;;;;;;16.07;100.00;100571.81;5049257;28;20545;-46
2023/04/23 06:20:07;;;;;;;9.30;8.40;;;;;;;16.78;100.00;100582.19;5063974;28;20461;-43
2023/04/23 06:22:35;;;;;;;8.30;7.70;;;;;;;17.86;100.00;100579.13;5066837;28;20430;-51
2023/04/23 06:25:04;;;;;;;8.40;7.90;;;;;;;18.44;90.07;100565.06;5070302;28;20429;-47
2023/04/23 06:27:33;;;;;;;9.00;8.33;;;;;;;18.79;90.10;100556.56;5049938;28;20655;-44
2023/04/23 06:30:00;;;;;;;7.63;7.13;;;;;;;18.72;81.08;100572.16;5049707;28;20518;-44
2023/04/23 06:32:28;;;;;;;7.37;6.87;;;;;;;18.75;83.35;100567.06;5050161;28;20839;-45
2023/04/23 06:34:55;;;;;;;7.90;7.20;;;;;;;18.76;78.67;100576.78;5036673;28;20497;-50
2023/04/23 06:37:30;;;;;;;7.60;7.07;;;;;;;19.10;81.25;100577.41;5048394;28;20801;-45
2023/04/23 06:39:59;;;;;;;9.10;8.40;;;;;;;18.48;75.74;100587.78;5048715;28;20474;-51
2023/04/23 06:42:27;;;;;;;7.83;7.33;;;;;;;18.08;75.69;100588.09;5049734;28;20443;-43
2023/04/23 06:44:58;;;;;;;8.07;7.40;;;;;;;17.86;79.20;100597.22;5042776;28;20475;-43
2023/04/23 06:47:26;;;;;;;9.80;9.03;;;;;;;17.40;79.57;100592.94;5056654;28;20488;-46
2023/04/23 06:49:53;;;;;;;8.27;7.80;;;;;;;17.36;86.85;100598.00;5055826;28;20420;-44
2023/04/23 06:52:21;;;;;;;10.13;8.57;;;;;;;17.45;84.00;100590.34;5054919;28;20959;-47
2023/04/23 06:54:49;;;;;;;8.87;8.13;;;;;;;17.34;80.49;100602.03;5029613;28;20487;-45
2023/04/23 06:57:16;;;;;;;7.63;7.20;;;;;;;17.37;84.75;100596.97;5076022;28;20538;-45
2023/04/23 06:59:44;;;;;;;9.20;8.30;;;;;;;17.17;79.25;100601.19;5075501;28;21010;-46
2023/04/23 07:02:13;;;;;;;9.50;8.77;;;;;;;16.51;84.18;100599.91;5075375;28;20438;-43
2023/04/23 07:04:41;;;;;;;9.50;8.80;;;;;;;16.05;86.17;100590.88;5035464;28;20521;-49
2023/04/23 07:07:09;;;;;;;10.33;9.63;;;;;;;15.72;91.89;100596.03;5075027;28;20450;-46
2023/04/23 07:09:36;;;;;;;9.43;8.73;;;;;;;15.56;95.48;100594.03;5075533;28;20426;-43
2023/04/23 07:12:04;;;;;;;10.23;9.33;;;;;;;15.25;96.41;100597.00;5018473;28;20458;-44
2023/04/23 07:14:32;;;;;;;9.87;9.17;;;;;;;15.24;95.96;100598.88;5074595;28;20430;-45
2023/04/23 07:16:59;;;;;;;10.80;9.97;;;;;;;15.42;100.00;100595.28;5075163;28;20816;-43
2023/04/23 07:19:29;;;;;;;10.67;9.87;;;;;;;15.48;100.00;100589.84;5048536;28;20520;-46
2023/04/23 07:21:56;;;;;;;12.13;11.03;;;;;;;15.68;100.00;100584.09;5074102;28;20453;-46
2023/04/23 07:24:25;;;;;;;13.43;12.10;;;;;;;15.41;96.14;100588.28;5074514;28;20426;-45
2023/04/23 07:26:53;;;;;;;12.80;11.60;;;;;;;15.48;96.35;100579.09;5074738;28;20454;-46
2023/04/23 07:29:22;;;;;;;14.17;12.97;;;;;;;15.61;99.39;100590.66;5074879;28;20461;-47
2023/04/23 07:31:50;;;;;;;14.37;13.00;;;;;;;15.66;97.31;100591.59;5073615;28;20462;-46
2023/04/23 07:34:17;;;;;;;15.13;13.80;;;;;;;15.72;99.14;100579.91;5073864;28;20430;-45
2023/04/23 07:36:46;;;;;;;15.47;13.97;;;;;;;15.86;97.79;100585.88;5074559;28;20983;-46
2023/04/23 07:39:14;;;;;;;15.17;13.87;;;;;;;15.69;100.00;100591.13;5076915;28;20437;-44
2023/04/23 07:41:42;;;;;;;14.87;13.53;;;;;;;15.88;100.00;100589.97;5075453;28;21005;-43
2023/04/23 07:44:09;;;;;;;17.40;15.30;;;;;;;15.83;98.71;100592.53;5076697;28;20490;-45
2023/04/23 07:46:37;;;;;;;15.87;14.37;;;;;;;16.04;99.55;100586.53;5076165;28;20466;-47
2023/04/23 07:49:06;;;;;;;15.53;14.17;;;;;;;15.93;94.90;100595.44;5075468;28;20513;-43
2023/04/23 07:51:34;;;;;;;14.83;13.43;;;;;;;15.92;95.85;100599.19;5070317;28;20468;-43
2023/04/23 07:54:04;;;;;;;16.20;14.73;;;;;;;15.81;92.01;100602.69;5076536;28;20944;-46
2023/04/23 07:56:32;;;;;;;15.17;13.77;;;;;;;15.68;93.53;100594.06;5076248;28;21021;-45
2023/04/23 07:58:59;;;;;;;16.57;15.00;;;;;;;15.64;96.47;100595.56;5076188;28;20435;-45
2023/04/23 08:01:28;;;;;;;15.93;14.53;;;;;;;15.65;95.42;100592.63;5065248;28;20470;-43
2023/04/23 08:03:56;;;;;;;16.43;14.97;;;;;;;15.66;95.74;100583.53;5077078;28;20438;-43
2023/04/23 08:06:28;;;;;;;16.10;14.70;;;;;;;15.78;98.22;100588.91;5076377;28;20512;-48
2023/04/23 08:08:56;;;;;;;16.23;14.70;;;;;;;15.47;95.10;100592.75;5076600;28;20466;-46
2023/04/23 08:11:28;;;;;;;14.13;12.90;;;;;;;15.63;98.29;100591.25;5075549;28;21008;-49
2023/04/23 08:13:55;;;;;;;16.47;15.07;;;;;;;15.90;98.70;100592.41;5075950;28;20425;-43
2023/04/23 08:16:23;;;;;;;18.93;15.30;;;;;;;15.89;95.65;100593.44;5075923;28;20465;-46
2023/04/23 08:18:51;;;;;;;15.00;13.57;;;;;;;15.89;93.02;100588.06;5076656;28;20423;-43
2023/04/23 08:21:31;;;;;;;16.27;14.70;;;;;;;15.81;92.74;100596.50;5071019;28;20512;-50
2023/04/23 08:23:59;;;;;;;15.00;13.80;;;;;;;15.71;93.89;100593.59;5076297;28;20472;-43
2023/04/23 08:26:28;;;;;;;15.27;13.97;;;;;;;15.69;94.16;100593.81;5076360;28;20445;-47
2023/04/23 08:28:56;;;;;;;15.57;13.93;;;;;;;15.49;93.67;100602.22;5076532;28;20432;-46
2023/04/23 08:31:23;;;;;;;15.73;14.30;;;;;;;15.29;95.32;100598.97;5076252;28;20551;-49
2023/04/23 08:33:53;;;;;;;15.10;13.80;;;;;;;15.17;97.28;100591.97;5072261;28;20469;-47
2023/04/23 08:36:21;;;;;;;17.30;15.67;;;;;;;15.00;100.00;100590.97;5076764;28;20454;-43
2023/04/23 08:38:49;;;;;;;15.50;14.00;;;;;;;15.10;100.00;100593.94;5076592;28;20434;-45
2023/04/23 08:41:20;;;;;;;18.53;16.43;;;;;;;15.21;100.00;100593.94;5075851;28;20510;-48
2023/04/23 08:43:55;;;;;;;15.27;13.80;;;;;;;15.14;100.00;100589.75;5075941;28;20550;-45
2023/04/23 08:46:24;;;;;;;16.60;15.00;;;;;;;15.10;100.00;100577.81;5076720;28;20457;-45
2023/04/23 08:48:53;;;;;;;14.00;12.70;;;;;;;15.00;100.00;100578.38;5077090;28;20522;-48
2023/04/23 08:51:24;;;;;;;18.67;13.23;;;;;;;15.11;100.00;100588.34;5075305;28;20427;-45
2023/04/23 08:53:55;;;;;;;15.20;13.50;;;;;;;15.35;99.08;100584.63;5070450;28;20492;-46
2023/04/23 08:56:24;;;;;;;14.57;13.07;;;;;;;15.56;100.00;100591.34;5077086;28;20442;-47
2023/04/23 08:58:53;;;;;;;14.20;12.87;;;;;;;15.55;99.11;100591.59;5076873;28;20430;-45
2023/04/23 09:01:23;;;;;;;15.20;13.80;;;;;;;15.54;98.54;100589.94;5076057;28;20474;-51
2023/04/23 09:03:53;;;;;;;16.00;13.80;;;;;;;15.78;99.88;100592.41;5069753;28;20470;-43
2023/04/23 09:06:21;;;;;;;14.93;13.40;;;;;;;15.86;95.38;100583.19;5066858;28;20480;-45
2023/04/23 09:08:49;;;;;;;14.20;12.93;;;;;;;16.19;95.30;100587.94;5075275;28;20487;-46
2023/04/23 09:11:18;;;;;;;13.70;12.40;;;;;;;16.44;94.59;100575.81;5076812;28;20419;-43
2023/04/23 09:13:45;;;;;;;13.73;12.63;;;;;;;16.76;90.50;100584.28;5076037;28;20552;-43
2023/04/23 09:16:14;;;;;;;15.10;13.73;;;;;;;16.83;88.49;100578.75;5076154;28;20445;-44
2023/04/23 09:18:42;;;;;;;15.33;14.10;;;;;;;16.97;89.38;100580.91;5076853;28;20906;-43
2023/04/23 09:21:11;;;;;;;14.13;12.73;;;;;;;16.90;82.69;100582.13;5075752;28;21099;-46
2023/04/23 09:23:40;;;;;;;13.83;12.73;;;;;;;17.07;83.71;100591.88;5070354;28;20457;-43
2023/04/23 09:26:08;;;;;;;13.27;12.17;;;;;;;17.24;80.53;100583.78;5076662;28;21007;-43
2023/04/23 09:28:36;;;;;;;13.40;12.30;;;;;;;17.12;77.53;100578.47;5077328;28;20414;-44
2023/04/23 09:31:06;;;;;;;13.30;11.50;;;;;;;16.98;80.26;100584.41;5079613;28;20521;-46
2023/04/23 09:33:36;;;;;;;12.73;11.70;;;;;;;16.71;79.30;100581.50;5078371;28;20461;-47
2023/04/23 09:36:09;;;;;;;16.20;14.60;;;;;;;16.69;82.52;100570.16;5079751;28;20428;-46
2023/04/23 09:38:40;;;;;;;14.70;13.20;;;;;;;16.90;83.98;100568.66;5077568;28;20433;-46
2023/04/23 09:41:21;;;;;;;14.23;12.90;;;;;;;16.79;79.64;100566.81;5079586;28;20481;-50
2023/04/23 09:43:49;;;;;;;14.70;13.30;;;;;;;16.96;81.82;100565.00;5079133;28;20414;-45
2023/04/23 09:46:16;;;;;;;13.00;11.90;;;;;;;17.31;82.40;100562.91;5080440;28;20800;-50
2023/04/23 09:48:47;;;;;;;12.23;11.13;;;;;;;17.49;77.10;100553.75;5079395;28;20850;-44
2023/04/23 09:51:15;;;;;;;13.70;11.73;;;;;;;17.95;77.35;100555.25;5079796;28;20425;-46
2023/04/23 09:53:44;;;;;;;13.00;11.90;;;;;;;17.76;72.12;100554.72;5079397;28;20425;-46
2023/04/23 09:56:12;;;;;;;13.13;12.03;;;;;;;17.53;72.73;100558.38;5079538;28;20453;-45
2023/04/23 09:58:40;;;;;;;12.90;11.90;;;;;;;17.41;74.18;100557.66;5079603;28;20435;-47
2023/04/23 10:01:08;;;;;;;12.33;11.13;;;;;;;17.27;71.35;100571.69;5080451;28;20466;-48
2023/04/23 10:03:36;;;;;;;12.73;11.47;;;;;;;17.62;73.46;100561.53;5079082;28;20461;-48
2023/04/23 10:06:08;;;;;;;13.03;11.93;;;;;;;18.05;72.02;100563.47;5079890;28;20490;-46
2023/04/23 10:08:52;;;;;;;13.97;12.57;;;;;;;18.38;67.98;100555.25;5079560;28;20464;-46
2023/04/23 10:11:19;;;;;;;13.37;11.97;;;;;;;18.59;68.07;100551.75;5078557;28;20434;-47
2023/04/23 10:13:48;;;;;;;13.37;12.17;;;;;;;18.96;64.51;100551.06;5077511;28;20460;-49
2023/04/23 10:16:16;;;;;;;13.90;12.60;;;;;;;18.59;64.86;100554.47;5078393;28;20446;-45
2023/04/23 10:18:55;;;;;;;13.83;12.33;;;;;;;19.20;66.49;100544.25;5078966;28;20435;-46
2023/04/23 10:21:27;;;;;;;13.87;12.67;;;;;;;19.27;65.18;100551.06;5078162;28;20524;-44
2023/04/23 10:24:06;;;;;;;14.60;13.33;;;;;;;19.49;64.31;100542.88;5067586;28;20458;-44
2023/04/23 10:26:37;;;;;;;13.43;12.33;;;;;;;19.24;62.19;100542.63;5067844;28;20445;-48
2023/04/23 10:29:11;;;;;;;14.40;13.20;;;;;;;19.43;62.93;100541.22;5067461;28;20442;-44
2023/04/23 10:31:39;;;;;;;13.50;12.40;;;;;;;19.53;61.71;100551.28;5066602;28;20435;-48
2023/04/23 10:34:08;;;;;;;13.40;12.20;;;;;;;19.47;59.48;100546.91;5059445;28;20501;-46
2023/04/23 10:36:38;;;;;;;13.77;12.43;;;;;;;19.17;60.18;100533.94;5058438;28;20463;-47
2023/04/23 10:39:07;;;;;;;13.13;12.03;;;;;;;19.06;59.68;100533.03;5057397;28;20415;-48
2023/04/23 10:41:39;;;;;;;15.20;13.80;;;;;;;18.70;61.02;100536.47;5058033;28;20528;-43
2023/04/23 10:44:11;;;;;;;14.10;13.03;;;;;;;19.09;62.50;100535.22;5057990;28;20427;-46
2023/04/23 10:46:38;;;;;;;15.23;13.87;;;;;;;18.90;58.93;100535.88;5057439;28;20463;-44
2023/04/23 10:49:08;;;;;;;14.37;13.17;;;;;;;19.01;60.82;100535.69;5059079;28;20533;-49
2023/04/23 10:51:38;;;;;;;15.27;13.63;;;;;;;19.20;60.46;100528.81;5057442;28;20438;-43
2023/04/23 10:54:10;;;;;;;14.60;13.40;;;;;;;19.36;60.94;100540.56;5056992;28;20426;-46
2023/04/23 10:56:41;;;;;;;13.20;12.20;;;;;;;19.13;61.83;100530.13;5057118;28;20447;-45
2023/04/23 10:59:18;;;;;;;15.50;14.17;;;;;;;19.28;59.15;100532.94;5058636;28;20465;-48
2023/04/23 11:01:47;;;;;;;15.37;14.00;;;;;;;19.52;60.09;100525.31;5057737;28;20793;-46
2023/04/23 11:04:27;;;;;;;16.53;15.00;;;;;;;19.48;57.94;100521.50;5055487;28;20489;-46
2023/04/23 11:06:58;;;;;;;14.80;13.43;;;;;;;19.53;58.91;100530.47;5058375;28;20442;-47
2023/04/23 11:09:36;;;;;;;13.83;12.67;;;;;;;19.50;59.93;100535.59;5056828;28;20441;-46
2023/04/23 11:12:07;;;;;;;13.10;12.17;;;;;;;19.63;59.06;100516.19;5057078;28;20429;-46
2023/04/23 11:14:37;;;;;;;15.03;13.73;;;;;;;19.81;58.32;100515.75;5056773;28;20450;-46
2023/04/23 11:17:06;;;;;;;14.80;13.50;;;;;;;19.78;58.75;100517.09;5057008;28;20477;-44